Elk Lake, Canada
Current Conditions -  °F | °C
As of 1:00 PM on Friday 24 Oct 2014 (Local Time) from CYXR Reporting Station
Broken Clouds Broken Clouds  
Wind Chill: 52°   Ceiling: 20000
Heat Index: 52°   Visibility: 9mi
Dew Point: 36°   Wind: 6mph
Humidity: 54%   Direction: 190°S
Pressure: 29.93"   Gusts: NA
Location:  47.72°N, 80.33°W
Report Text: CYXR 241700Z AUTO 19005KT 160V250 9SM BKN200 11/02 A2993 RMK SLP145
Loading
Personal Weather Stations






























Interactive Weather Map
Tropical Storm Tracking
New forecast layout! Learn more

10-Day Weather Forecast

Advertisements
Track Severe Weather on mobile